Time;durP1;ratioP1;P1;durP2;ratioP2;P2;SDS_P1;SDS_P2;PMS_P1;PMS_P2;Temp;Humidity;BMP_temperature;BMP_pressure;BME280_temperature;BME280_humidity;BME280_pressure;Samples;Min_cycle;Max_cycle;Signal;HPM_P1;HPM_P2
2022/10/20 00:00:49;;;;;;;24.30;13.50;;;13.70;99.90;;;;;;5081645;28;20431;-57
2022/10/20 00:03:15;;;;;;;20.93;12.73;;;13.70;99.90;;;;;;5083269;28;20177;-57
2022/10/20 00:05:40;;;;;;;23.67;13.27;;;13.70;99.90;;;;;;5079261;28;20529;-53
2022/10/20 00:08:06;;;;;;;24.73;13.33;;;13.70;99.90;;;;;;5086122;28;20173;-55
2022/10/20 00:10:31;;;;;;;29.10;13.33;;;13.70;99.90;;;;;;5078132;28;20170;-55
2022/10/20 00:12:57;;;;;;;22.30;12.60;;;13.70;99.90;;;;;;5073135;28;20174;-54
2022/10/20 00:15:22;;;;;;;29.07;14.00;;;13.70;99.90;;;;;;5076446;28;20708;-54
2022/10/20 00:17:48;;;;;;;24.03;13.63;;;13.70;99.90;;;;;;5080181;28;20184;-53
2022/10/20 00:20:13;;;;;;;22.90;12.90;;;13.70;99.90;;;;;;5083608;28;20687;-57
2022/10/20 00:22:39;;;;;;;33.43;14.63;;;13.70;99.90;;;;;;5078983;28;20180;-54
2022/10/20 00:25:05;;;;;;;23.47;13.90;;;13.70;99.90;;;;;;5078426;28;20229;-54
2022/10/20 00:27:31;;;;;;;26.40;14.03;;;13.70;99.90;;;;;;5071907;28;20165;-54
2022/10/20 00:29:56;;;;;;;31.00;14.27;;;13.70;99.90;;;;;;5084853;28;20173;-55
2022/10/20 00:32:22;;;;;;;24.57;13.70;;;13.70;99.90;;;;;;5078469;28;20253;-54
2022/10/20 00:34:47;;;;;;;26.40;14.90;;;13.70;99.90;;;;;;5083492;28;20683;-53
2022/10/20 00:37:13;;;;;;;22.57;13.57;;;13.70;99.90;;;;;;5083411;28;20212;-53
2022/10/20 00:39:39;;;;;;;24.63;14.60;;;13.70;99.90;;;;;;5080604;28;20261;-54
2022/10/20 00:42:05;;;;;;;24.90;13.53;;;13.70;99.90;;;;;;5079121;28;20181;-53
2022/10/20 00:44:52;;;;;;;26.47;13.93;;;13.70;99.90;;;;;;5077273;28;20217;-54
2022/10/20 00:47:42;;;;;;;27.83;13.93;;;13.70;99.90;;;;;;5074589;28;20483;-53
2022/10/20 00:50:29;;;;;;;25.03;16.00;;;13.60;99.90;;;;;;5079027;28;20420;-58
2022/10/20 00:52:55;;;;;;;25.07;15.10;;;13.60;99.90;;;;;;5077464;28;20525;-54
2022/10/20 00:55:27;;;;;;;27.43;14.70;;;13.60;99.90;;;;;;5079277;28;20921;-53
2022/10/20 00:57:55;;;;;;;31.13;15.57;;;13.60;99.90;;;;;;5075090;28;20198;-54
2022/10/20 01:00:21;;;;;;;28.93;15.50;;;13.60;99.90;;;;;;5083769;28;20542;-54
2022/10/20 01:02:49;;;;;;;29.13;16.70;;;13.60;99.90;;;;;;5076492;28;20508;-52
2022/10/20 01:05:15;;;;;;;25.97;15.00;;;13.60;99.90;;;;;;5082719;28;20347;-54
2022/10/20 01:07:41;;;;;;;29.57;15.90;;;13.60;99.90;;;;;;5078080;28;20595;-53
2022/10/20 01:10:07;;;;;;;31.30;16.33;;;13.60;99.90;;;;;;5079466;28;20173;-54
2022/10/20 01:13:11;;;;;;;28.80;14.30;;;13.60;99.90;;;;;;5075065;28;20341;-53
2022/10/20 01:16:05;;;;;;;28.00;15.33;;;13.60;99.90;;;;;;5079093;28;20451;-54
2022/10/20 01:18:34;;;;;;;25.60;15.07;;;13.60;99.90;;;;;;5075903;28;20511;-53
2022/10/20 01:21:12;;;;;;;29.40;15.27;;;13.60;99.90;;;;;;5080521;28;20420;-54
2022/10/20 01:23:47;;;;;;;32.00;15.90;;;13.60;99.90;;;;;;5084190;28;21071;-55
2022/10/20 01:26:30;;;;;;;30.63;15.47;;;13.60;99.90;;;;;;5077084;28;20590;-53
2022/10/20 01:29:04;;;;;;;26.50;15.37;;;13.60;99.90;;;;;;5081677;28;20424;-51
2022/10/20 01:31:42;;;;;;;37.03;14.90;;;13.60;99.90;;;;;;5072772;28;20424;-55
2022/10/20 01:34:10;;;;;;;37.43;15.63;;;13.60;99.90;;;;;;5079241;28;20451;-53
2022/10/20 01:37:02;;;;;;;34.43;17.63;;;13.60;99.90;;;;;;5083058;28;20510;-55
2022/10/20 01:39:45;;;;;;;33.90;17.50;;;13.50;99.90;;;;;;5077819;28;20467;-54
2022/10/20 01:42:17;;;;;;;27.87;16.50;;;13.60;99.90;;;;;;5082459;28;20475;-54
2022/10/20 01:44:45;;;;;;;30.17;17.40;;;13.50;99.90;;;;;;5075585;28;20456;-54
2022/10/20 01:47:13;;;;;;;35.00;17.53;;;13.50;99.90;;;;;;5078563;28;20514;-56
2022/10/20 01:49:42;;;;;;;32.23;17.60;;;13.60;99.90;;;;;;5084692;28;20792;-54
2022/10/20 01:52:10;;;;;;;31.60;16.63;;;13.50;99.90;;;;;;5084795;28;20941;-54
2022/10/20 01:54:36;;;;;;;36.60;18.30;;;13.60;99.90;;;;;;5078878;28;21001;-56
2022/10/20 01:57:16;;;;;;;31.23;16.47;;;13.50;99.90;;;;;;5083266;28;20551;-54
2022/10/20 01:59:41;;;;;;;37.70;17.73;;;13.50;99.90;;;;;;5082003;28;20460;-53
2022/10/20 02:02:26;;;;;;;29.37;16.50;;;13.50;99.90;;;;;;5087223;28;21015;-53
2022/10/20 02:05:01;;;;;;;29.57;16.00;;;13.50;99.90;;;;;;5078211;28;20239;-56
2022/10/20 02:07:29;;;;;;;33.23;17.80;;;13.50;99.90;;;;;;5082810;28;20431;-54
2022/10/20 02:10:05;;;;;;;29.00;16.20;;;13.50;99.90;;;;;;5082697;28;20503;-55
2022/10/20 02:12:36;;;;;;;38.00;16.27;;;13.50;99.90;;;;;;5080938;28;20423;-54
2022/10/20 02:15:04;;;;;;;37.30;18.50;;;13.50;99.90;;;;;;5083288;28;20462;-54
2022/10/20 02:17:32;;;;;;;25.53;16.00;;;13.50;99.90;;;;;;5078832;28;20946;-55
2022/10/20 02:19:58;;;;;;;28.17;16.60;;;13.50;99.90;;;;;;5086527;28;20461;-53
2022/10/20 02:22:25;;;;;;;30.77;16.80;;;13.50;99.90;;;;;;5085974;28;20426;-55
2022/10/20 02:24:50;;;;;;;30.33;17.57;;;13.50;99.90;;;;;;5082651;28;20213;-54
2022/10/20 02:27:22;;;;;;;28.83;16.10;;;13.50;99.90;;;;;;5079003;28;20515;-53
2022/10/20 02:29:54;;;;;;;44.67;17.30;;;13.50;99.90;;;;;;5086715;28;20170;-54
2022/10/20 02:32:21;;;;;;;28.30;16.90;;;13.50;99.90;;;;;;5085622;28;20520;-54
2022/10/20 02:34:47;;;;;;;29.40;17.00;;;13.50;99.90;;;;;;5083118;28;20449;-54
2022/10/20 02:37:13;;;;;;;30.67;17.77;;;13.50;99.90;;;;;;5090573;28;20493;-55
2022/10/20 02:39:38;;;;;;;34.87;16.50;;;13.50;99.90;;;;;;5085046;28;20510;-54
2022/10/20 02:42:05;;;;;;;32.83;18.00;;;13.50;99.90;;;;;;5079074;28;20174;-53
2022/10/20 02:44:31;;;;;;;31.87;17.47;;;13.50;99.90;;;;;;5083306;28;20267;-54
2022/10/20 02:46:56;;;;;;;29.17;17.43;;;13.50;99.90;;;;;;5084017;28;20421;-55
2022/10/20 02:49:24;;;;;;;34.00;18.63;;;13.50;99.90;;;;;;5082759;28;20988;-54
2022/10/20 02:51:50;;;;;;;32.77;17.57;;;13.50;99.90;;;;;;5076071;28;20186;-54
2022/10/20 02:54:15;;;;;;;29.93;17.67;;;13.50;99.90;;;;;;5087761;28;20502;-53
2022/10/20 02:56:41;;;;;;;37.17;18.10;;;13.50;99.90;;;;;;5080923;28;20962;-53
2022/10/20 02:59:13;;;;;;;28.73;17.10;;;13.40;99.90;;;;;;5082279;28;20170;-55
2022/10/20 03:01:40;;;;;;;29.60;18.70;;;13.40;99.90;;;;;;5081800;28;20178;-54
2022/10/20 03:04:05;;;;;;;28.10;17.60;;;13.40;99.90;;;;;;5083266;28;20466;-53
2022/10/20 03:06:31;;;;;;;44.77;19.57;;;13.40;99.90;;;;;;5081192;28;20918;-53
2022/10/20 03:08:56;;;;;;;33.77;17.47;;;13.40;99.90;;;;;;5080552;28;20533;-53
2022/10/20 03:11:22;;;;;;;33.10;18.07;;;13.40;99.90;;;;;;5081978;28;20205;-54
2022/10/20 03:13:48;;;;;;;31.53;18.90;;;13.40;99.90;;;;;;5079141;28;20205;-53
2022/10/20 03:16:13;;;;;;;30.10;17.87;;;13.40;99.90;;;;;;5084995;28;20216;-52
2022/10/20 03:18:39;;;;;;;30.57;17.90;;;13.40;99.90;;;;;;5079978;28;20177;-54
2022/10/20 03:21:05;;;;;;;33.03;17.73;;;13.50;99.90;;;;;;5086894;28;20184;-54
2022/10/20 03:23:30;;;;;;;25.70;16.47;;;13.40;99.90;;;;;;5084982;28;20182;-53
2022/10/20 03:26:04;;;;;;;29.00;17.23;;;13.40;99.90;;;;;;5079882;28;20261;-54
2022/10/20 03:28:30;;;;;;;28.23;17.23;;;13.40;99.90;;;;;;5083291;28;20173;-54
2022/10/20 03:30:56;;;;;;;27.00;16.50;;;13.40;99.90;;;;;;5077167;28;20430;-55
2022/10/20 03:33:21;;;;;;;34.67;17.77;;;13.40;99.90;;;;;;5075738;28;20184;-52
2022/10/20 03:35:47;;;;;;;29.50;15.97;;;13.40;99.90;;;;;;5074010;28;20249;-54
2022/10/20 03:38:13;;;;;;;32.43;16.30;;;13.40;99.90;;;;;;5077524;28;20180;-53
2022/10/20 03:40:38;;;;;;;28.33;16.23;;;13.50;99.90;;;;;;5084530;28;20166;-54
2022/10/20 03:43:04;;;;;;;24.50;16.20;;;13.50;99.90;;;;;;5085549;28;20222;-56
2022/10/20 03:45:30;;;;;;;29.63;15.80;;;13.40;99.90;;;;;;5085394;28;20205;-53
2022/10/20 03:47:55;;;;;;;26.50;15.03;;;13.40;99.90;;;;;;5085550;28;20189;-53
2022/10/20 03:50:21;;;;;;;26.50;15.47;;;13.40;99.90;;;;;;5081230;28;20693;-53
2022/10/20 03:52:47;;;;;;;25.10;15.77;;;13.40;99.90;;;;;;5081572;28;20174;-53
2022/10/20 03:55:14;;;;;;;23.30;14.40;;;13.40;99.90;;;;;;5082873;28;20217;-54
2022/10/20 03:57:40;;;;;;;25.90;15.50;;;13.40;99.90;;;;;;5082089;28;20439;-53
2022/10/20 04:00:06;;;;;;;29.07;15.30;;;13.40;99.90;;;;;;5082546;28;20439;-53
2022/10/20 04:02:38;;;;;;;28.07;15.67;;;13.40;99.90;;;;;;5081871;28;20431;-52
2022/10/20 04:05:05;;;;;;;32.97;16.80;;;13.40;99.90;;;;;;5082689;28;20554;-52
2022/10/20 04:07:30;;;;;;;25.57;15.83;;;13.40;99.90;;;;;;5075362;28;20799;-56
2022/10/20 04:09:56;;;;;;;26.23;16.60;;;13.40;99.90;;;;;;5076325;28;20470;-54
2022/10/20 04:12:23;;;;;;;24.50;15.10;;;13.40;99.90;;;;;;5080044;28;20178;-55
2022/10/20 04:14:48;;;;;;;31.73;15.77;;;13.50;99.90;;;;;;5085269;28;20706;-54
2022/10/20 04:17:14;;;;;;;30.60;16.63;;;13.40;99.90;;;;;;5083273;28;20432;-54
2022/10/20 04:19:40;;;;;;;28.13;16.53;;;13.40;99.90;;;;;;5077084;28;20182;-55
2022/10/20 04:22:06;;;;;;;27.33;15.37;;;13.40;99.90;;;;;;5077663;28;20193;-56
2022/10/20 04:24:31;;;;;;;30.33;15.83;;;13.40;99.90;;;;;;5080327;28;20512;-54
2022/10/20 04:26:57;;;;;;;27.30;16.30;;;13.40;99.90;;;;;;5079563;28;20538;-55
2022/10/20 04:29:23;;;;;;;28.40;16.00;;;13.40;99.90;;;;;;5076823;28;20295;-55
2022/10/20 04:31:48;;;;;;;27.53;16.30;;;13.40;99.90;;;;;;5082352;28;20195;-54
2022/10/20 04:34:14;;;;;;;26.23;15.90;;;13.40;99.90;;;;;;5076260;28;20301;-56
2022/10/20 04:36:40;;;;;;;27.00;17.17;;;13.40;99.90;;;;;;5073811;28;20185;-54
2022/10/20 04:39:06;;;;;;;29.63;15.93;;;13.40;99.90;;;;;;5077750;28;20193;-55
2022/10/20 04:41:32;;;;;;;28.70;16.97;;;13.40;99.90;;;;;;5076731;28;20186;-54
2022/10/20 04:43:57;;;;;;;28.80;16.27;;;13.30;99.90;;;;;;5072774;28;20535;-54
2022/10/20 04:46:24;;;;;;;30.27;16.30;;;13.30;99.90;;;;;;5080020;28;20170;-54
2022/10/20 04:48:50;;;;;;;25.70;15.10;;;13.30;99.90;;;;;;5083253;28;20173;-53
2022/10/20 04:51:16;;;;;;;27.43;16.30;;;13.30;99.90;;;;;;5082095;28;20463;-53
2022/10/20 04:53:42;;;;;;;25.63;16.67;;;13.40;99.90;;;;;;5072290;28;20622;-52
2022/10/20 04:56:10;;;;;;;28.27;16.80;;;13.40;99.90;;;;;;5083147;28;20431;-54
2022/10/20 04:58:36;;;;;;;32.10;17.10;;;13.40;99.90;;;;;;5087763;28;20296;-54
2022/10/20 05:01:10;;;;;;;25.53;16.10;;;13.30;99.90;;;;;;5078612;28;20519;-53
2022/10/20 05:03:36;;;;;;;21.40;13.67;;;13.30;99.90;;;;;;5078592;28;20304;-53
2022/10/20 05:06:11;;;;;;;25.77;16.40;;;13.30;99.90;;;;;;5085483;28;20424;-53
2022/10/20 05:08:37;;;;;;;25.43;15.80;;;13.30;99.90;;;;;;5083543;28;20176;-53
2022/10/20 05:11:02;;;;;;;28.23;15.63;;;13.30;99.90;;;;;;5081404;28;20499;-53
2022/10/20 05:13:28;;;;;;;29.90;16.43;;;13.30;99.90;;;;;;5085826;28;20265;-55
2022/10/20 05:15:54;;;;;;;28.30;15.30;;;13.30;99.90;;;;;;5085309;28;20624;-56
2022/10/20 05:18:19;;;;;;;27.20;15.57;;;13.30;99.90;;;;;;5079223;28;20653;-54
2022/10/20 05:20:45;;;;;;;24.70;16.40;;;13.30;99.90;;;;;;5087780;28;20216;-54
2022/10/20 05:23:11;;;;;;;30.13;16.00;;;13.30;99.90;;;;;;5074838;28;20186;-55
2022/10/20 05:25:37;;;;;;;32.13;17.27;;;13.30;99.90;;;;;;5075545;28;20212;-55
2022/10/20 05:28:04;;;;;;;25.80;15.30;;;13.30;99.90;;;;;;5083960;28;20223;-54
2022/10/20 05:30:29;;;;;;;28.23;15.27;;;13.30;99.90;;;;;;5077257;28;20436;-54
2022/10/20 05:32:55;;;;;;;26.30;15.87;;;13.30;99.90;;;;;;5082761;28;20435;-54
2022/10/20 05:35:21;;;;;;;24.23;16.63;;;13.20;99.90;;;;;;5081107;28;20205;-54
2022/10/20 05:37:47;;;;;;;28.50;16.40;;;13.20;99.90;;;;;;5077945;28;20185;-54
2022/10/20 05:40:12;;;;;;;26.30;14.73;;;13.20;99.90;;;;;;5079927;28;20191;-53
2022/10/20 05:42:38;;;;;;;26.30;15.43;;;13.20;99.90;;;;;;5077235;28;20196;-54
2022/10/20 05:45:05;;;;;;;26.30;15.10;;;13.10;99.90;;;;;;5081248;28;20264;-55
2022/10/20 05:47:32;;;;;;;24.20;15.50;;;13.10;99.90;;;;;;5086682;28;20174;-53
2022/10/20 05:49:57;;;;;;;28.27;15.80;;;13.10;99.90;;;;;;5085934;28;20419;-55
2022/10/20 05:52:23;;;;;;;26.17;16.50;;;13.10;99.90;;;;;;5087047;28;20504;-53
2022/10/20 05:54:48;;;;;;;24.67;16.50;;;13.10;99.90;;;;;;5078014;28;20635;-53
2022/10/20 05:57:14;;;;;;;24.57;15.00;;;13.10;99.90;;;;;;5083354;28;20204;-53
2022/10/20 05:59:39;;;;;;;25.27;16.00;;;13.10;99.90;;;;;;5085797;28;20661;-51
2022/10/20 06:02:05;;;;;;;27.33;15.30;;;13.10;99.90;;;;;;5086145;28;20181;-54
2022/10/20 06:04:31;;;;;;;21.70;16.37;;;13.10;99.90;;;;;;5082957;28;20210;-53
2022/10/20 06:06:57;;;;;;;26.37;15.80;;;13.10;99.90;;;;;;5078371;28;21098;-53
2022/10/20 06:09:23;;;;;;;28.47;15.57;;;13.10;99.90;;;;;;5085168;28;20181;-53
2022/10/20 06:11:50;;;;;;;23.73;14.57;;;13.10;99.90;;;;;;5074286;28;20278;-53
2022/10/20 06:14:16;;;;;;;27.03;16.23;;;13.10;99.90;;;;;;5085254;28;20516;-55
2022/10/20 06:16:42;;;;;;;23.60;15.63;;;13.10;99.90;;;;;;5080798;28;20461;-53
2022/10/20 06:19:08;;;;;;;26.60;14.57;;;13.10;99.90;;;;;;5079629;28;20436;-53
2022/10/20 06:21:35;;;;;;;23.10;14.53;;;13.10;99.90;;;;;;5072887;28;20441;-54
2022/10/20 06:24:06;;;;;;;24.27;14.93;;;13.10;99.90;;;;;;5078104;28;20206;-54
2022/10/20 06:26:35;;;;;;;24.90;15.03;;;13.10;99.90;;;;;;5075222;28;20504;-54
2022/10/20 06:29:01;;;;;;;25.10;15.43;;;13.10;99.90;;;;;;5074377;28;20787;-53
2022/10/20 06:31:33;;;;;;;27.03;15.83;;;13.10;99.90;;;;;;5073227;28;20526;-53
2022/10/20 06:34:00;;;;;;;24.20;15.10;;;13.10;99.90;;;;;;5071983;28;20962;-53
2022/10/20 06:36:26;;;;;;;22.43;14.43;;;13.10;99.90;;;;;;5073307;28;20935;-55
2022/10/20 06:38:57;;;;;;;22.00;15.00;;;13.20;99.90;;;;;;5076590;28;20525;-54
2022/10/20 06:41:24;;;;;;;23.93;15.03;;;13.20;99.90;;;;;;5086660;28;20439;-54
2022/10/20 06:43:59;;;;;;;24.67;15.47;;;13.20;99.90;;;;;;5085242;28;20572;-56
2022/10/20 06:46:29;;;;;;;21.60;13.07;;;13.20;99.90;;;;;;5089086;28;20520;-55
2022/10/20 06:48:55;;;;;;;24.67;13.83;;;13.20;99.90;;;;;;5091177;28;20419;-54
2022/10/20 06:51:21;;;;;;;21.70;14.20;;;13.20;99.90;;;;;;5089939;28;20472;-54
2022/10/20 06:53:48;;;;;;;22.00;13.67;;;13.20;99.90;;;;;;5070310;28;20284;-52
2022/10/20 06:56:19;;;;;;;24.23;14.57;;;13.20;99.90;;;;;;5088033;28;20820;-54
2022/10/20 06:58:47;;;;;;;24.90;14.60;;;13.20;99.90;;;;;;5087974;28;20503;-54
2022/10/20 07:01:16;;;;;;;24.00;14.70;;;13.20;99.90;;;;;;5090125;28;20428;-55
2022/10/20 07:03:43;;;;;;;23.10;14.77;;;13.20;99.90;;;;;;5088685;28;20451;-54
2022/10/20 07:06:16;;;;;;;24.90;15.63;;;13.20;99.90;;;;;;5088972;28;20785;-53
2022/10/20 07:08:42;;;;;;;23.60;14.03;;;13.20;99.90;;;;;;5082517;28;20484;-54
2022/10/20 07:11:11;;;;;;;27.23;15.73;;;13.20;99.90;;;;;;5089598;28;20435;-54
2022/10/20 07:13:37;;;;;;;22.33;13.87;;;13.30;99.90;;;;;;5087243;28;20616;-53
2022/10/20 07:16:04;;;;;;;26.03;13.67;;;13.30;99.90;;;;;;5089973;28;20416;-54
2022/10/20 07:18:31;;;;;;;25.37;13.80;;;13.30;99.90;;;;;;5090196;28;20475;-54
2022/10/20 07:20:58;;;;;;;25.90;13.20;;;13.30;99.90;;;;;;5078353;28;20816;-54
2022/10/20 07:23:26;;;;;;;24.10;14.77;;;13.30;99.90;;;;;;5069780;28;20916;-54
2022/10/20 07:25:52;;;;;;;23.50;14.00;;;13.40;99.90;;;;;;5076515;28;20950;-57
2022/10/20 07:28:20;;;;;;;25.40;15.23;;;13.40;99.90;;;;;;5089469;28;20964;-55
2022/10/20 07:30:46;;;;;;;22.30;13.80;;;13.40;99.90;;;;;;5085559;28;20429;-54
2022/10/20 07:33:12;;;;;;;27.23;13.57;;;13.40;99.90;;;;;;5079466;28;20476;-54
2022/10/20 07:35:37;;;;;;;25.83;13.73;;;13.40;99.90;;;;;;5088668;28;20451;-52
2022/10/20 07:38:03;;;;;;;20.60;12.97;;;13.40;99.90;;;;;;5088730;28;20177;-53
2022/10/20 07:40:29;;;;;;;22.00;14.70;;;13.40;99.90;;;;;;5089730;28;20185;-54
2022/10/20 07:42:55;;;;;;;28.70;15.10;;;13.40;99.90;;;;;;5074464;28;20178;-54
2022/10/20 07:45:20;;;;;;;28.70;16.03;;;13.50;99.90;;;;;;5086345;28;20524;-54
2022/10/20 07:47:46;;;;;;;23.40;14.33;;;13.50;99.90;;;;;;5088958;28;20811;-55
2022/10/20 07:50:12;;;;;;;23.60;15.30;;;13.50;99.90;;;;;;5088329;28;20261;-54
2022/10/20 07:52:37;;;;;;;25.03;14.73;;;13.60;99.90;;;;;;5088151;28;20541;-54
2022/10/20 07:55:04;;;;;;;20.60;14.13;;;13.60;99.90;;;;;;5088852;28;20205;-53
2022/10/20 07:57:30;;;;;;;23.67;14.53;;;13.60;99.90;;;;;;5087720;28;20239;-54
2022/10/20 07:59:56;;;;;;;32.80;17.33;;;13.60;99.90;;;;;;5088456;28;20428;-54
2022/10/20 08:02:22;;;;;;;28.13;14.77;;;13.60;99.90;;;;;;5089372;28;20533;-55
2022/10/20 08:04:48;;;;;;;28.67;15.00;;;13.60;99.90;;;;;;5089613;28;20220;-54
2022/10/20 08:07:14;;;;;;;34.40;16.50;;;13.60;99.90;;;;;;5088940;28;20431;-54
2022/10/20 08:09:40;;;;;;;31.93;17.37;;;13.50;99.90;;;;;;5087811;28;20427;-56
2022/10/20 08:12:05;;;;;;;23.60;15.07;;;13.60;99.90;;;;;;5067853;28;20269;-54
2022/10/20 08:14:32;;;;;;;23.37;13.60;;;13.60;99.90;;;;;;5077794;28;20221;-54
2022/10/20 08:17:00;;;;;;;35.27;14.80;;;13.60;99.90;;;;;;5089643;28;20253;-55
2022/10/20 08:19:26;;;;;;;25.50;13.97;;;13.60;99.90;;;;;;5088026;28;20514;-54
2022/10/20 08:21:51;;;;;;;24.23;14.30;;;13.60;99.90;;;;;;5086434;28;20473;-56
2022/10/20 08:24:17;;;;;;;25.13;15.03;;;13.60;99.90;;;;;;5083101;28;20495;-54
2022/10/20 08:26:43;;;;;;;25.80;13.67;;;13.60;99.90;;;;;;5086668;28;20184;-54
2022/10/20 08:29:11;;;;;;;23.43;14.43;;;13.60;99.90;;;;;;5088866;28;20424;-53
2022/10/20 08:31:37;;;;;;;23.30;13.67;;;13.60;99.90;;;;;;5084134;28;20188;-55
2022/10/20 08:34:03;;;;;;;26.83;15.17;;;13.60;99.90;;;;;;5078594;28;20757;-55
2022/10/20 08:36:28;;;;;;;28.13;15.97;;;13.70;99.90;;;;;;5088488;28;21094;-55
2022/10/20 08:38:55;;;;;;;25.23;14.13;;;13.70;99.90;;;;;;5087512;28;20653;-56
2022/10/20 08:41:32;;;;;;;27.60;15.43;;;13.70;99.90;;;;;;5086947;28;20264;-55
2022/10/20 08:44:00;;;;;;;27.10;15.13;;;13.80;99.90;;;;;;5088172;28;20887;-55
2022/10/20 08:46:32;;;;;;;32.90;15.17;;;13.80;99.90;;;;;;5087633;28;20967;-54
2022/10/20 08:48:57;;;;;;;26.10;15.10;;;13.90;99.90;;;;;;5087512;28;20433;-53
2022/10/20 08:51:29;;;;;;;24.70;15.20;;;13.90;99.90;;;;;;5086535;28;20518;-55
2022/10/20 08:53:58;;;;;;;31.63;17.67;;;14.00;99.90;;;;;;5069167;28;20205;-55
2022/10/20 08:56:27;;;;;;;22.57;14.53;;;14.10;99.90;;;;;;5074171;28;20439;-55
2022/10/20 08:58:53;;;;;;;22.40;13.17;;;14.10;99.90;;;;;;5087342;28;20434;-54
2022/10/20 09:01:23;;;;;;;21.53;13.77;;;14.20;99.90;;;;;;5088268;28;20844;-53
2022/10/20 09:03:54;;;;;;;21.60;13.70;;;14.10;99.90;;;;;;5087217;28;20877;-55
2022/10/20 09:06:20;;;;;;;20.37;12.90;;;14.20;99.90;;;;;;5086962;28;20557;-55
2022/10/20 09:08:46;;;;;;;20.07;12.43;;;14.20;99.90;;;;;;5086564;28;20435;-55
2022/10/20 09:11:20;;;;;;;18.90;12.03;;;14.20;99.90;;;;;;5087189;28;20180;-55
2022/10/20 09:13:46;;;;;;;17.03;11.20;;;14.40;99.90;;;;;;5087044;28;20461;-55
2022/10/20 09:16:14;;;;;;;15.37;11.17;;;14.50;99.90;;;;;;5086913;28;20937;-55
2022/10/20 09:18:40;;;;;;;19.83;11.40;;;14.50;99.90;;;;;;5086836;28;20188;-55
2022/10/20 09:21:15;;;;;;;20.20;12.37;;;14.60;99.90;;;;;;5087885;28;20866;-54
2022/10/20 09:23:48;;;;;;;27.40;13.03;;;14.60;99.90;;;;;;5086810;28;20443;-55
2022/10/20 09:26:31;;;;;;;25.53;13.70;;;14.60;99.90;;;;;;5086733;28;20443;-54
2022/10/20 09:29:09;;;;;;;17.90;11.90;;;14.70;99.90;;;;;;5087207;28;20790;-55
2022/10/20 09:31:38;;;;;;;24.73;12.77;;;14.70;99.90;;;;;;5086179;28;21062;-55
2022/10/20 09:34:24;;;;;;;31.67;12.60;;;14.80;99.90;;;;;;5087191;28;20432;-55
2022/10/20 09:37:02;;;;;;;21.23;13.07;;;14.80;99.90;;;;;;5085806;28;20526;-55
2022/10/20 09:39:32;;;;;;;30.43;14.30;;;14.90;99.90;;;;;;5087196;28;20496;-56
2022/10/20 09:42:22;;;;;;;27.33;13.40;;;14.90;99.90;;;;;;5080161;28;20412;-54
2022/10/20 09:44:53;;;;;;;17.80;11.37;;;15.00;99.90;;;;;;5087748;28;20469;-54
2022/10/20 09:47:21;;;;;;;25.10;11.10;;;15.00;99.90;;;;;;5082969;28;20460;-55
2022/10/20 09:49:55;;;;;;;29.03;12.87;;;15.10;99.90;;;;;;5077765;28;20420;-53
2022/10/20 09:52:26;;;;;;;15.37;10.97;;;15.10;99.90;;;;;;5084224;28;20494;-55
2022/10/20 09:55:06;;;;;;;21.13;12.00;;;15.20;99.90;;;;;;5085698;28;20451;-55
2022/10/20 09:57:33;;;;;;;22.20;11.77;;;15.20;99.90;;;;;;5086656;28;20434;-55
2022/10/20 10:00:00;;;;;;;26.30;11.93;;;15.30;99.90;;;;;;5085967;28;20439;-54
2022/10/20 10:02:28;;;;;;;20.87;12.93;;;15.30;99.90;;;;;;5085827;28;20431;-54
2022/10/20 10:05:13;;;;;;;22.90;14.40;;;15.40;99.90;;;;;;5078316;28;20507;-56
2022/10/20 10:07:39;;;;;;;25.90;14.97;;;15.40;99.90;;;;;;5099340;28;20428;-54
2022/10/20 10:10:24;;;;;;;24.47;14.60;;;15.40;99.90;;;;;;5081795;28;20564;-54
2022/10/20 10:12:54;;;;;;;28.83;15.23;;;15.50;99.90;;;;;;5076986;28;20697;-54
2022/10/20 10:15:28;;;;;;;24.20;14.70;;;15.50;99.90;;;;;;5077627;28;20832;-56
2022/10/20 10:17:55;;;;;;;28.10;14.60;;;15.50;99.90;;;;;;5073581;28;20512;-52
2022/10/20 10:20:38;;;;;;;27.73;15.93;;;15.60;99.90;;;;;;5078318;28;20535;-55
2022/10/20 10:23:25;;;;;;;21.93;14.10;;;15.70;99.90;;;;;;5067046;28;20431;-54
2022/10/20 10:25:52;;;;;;;26.77;15.63;;;15.70;99.90;;;;;;5083760;28;20948;-58
2022/10/20 10:28:32;;;;;;;27.07;15.47;;;15.70;99.90;;;;;;5086056;28;20431;-57
2022/10/20 10:31:16;;;;;;;27.73;14.40;;;15.90;99.90;;;;;;5078136;28;20953;-53
2022/10/20 10:33:41;;;;;;;25.87;15.13;;;15.90;99.90;;;;;;5085079;28;20972;-53
2022/10/20 10:36:28;;;;;;;28.50;15.13;;;16.00;99.90;;;;;;5077373;28;20516;-55
2022/10/20 10:38:55;;;;;;;25.57;15.30;;;16.00;99.90;;;;;;5084300;28;20188;-53
2022/10/20 10:41:50;;;;;;;26.77;14.70;;;16.10;99.90;;;;;;5082787;28;20481;-53
2022/10/20 10:44:46;;;;;;;30.70;14.80;;;16.10;99.90;;;;;;5074484;28;20486;-53
2022/10/20 10:47:31;;;;;;;37.00;16.60;;;16.10;99.90;;;;;;5088731;28;20490;-53
2022/10/20 10:50:21;;;;;;;31.60;17.93;;;16.10;99.90;;;;;;5081314;28;20441;-55
2022/10/20 10:53:17;;;;;;;31.80;17.07;;;16.10;99.90;;;;;;5085463;28;20949;-56
2022/10/20 10:55:57;;;;;;;39.37;16.40;;;16.00;99.90;;;;;;5088935;28;20470;-55
2022/10/20 10:58:37;;;;;;;33.13;17.17;;;15.90;99.90;;;;;;5084324;28;20411;-56
2022/10/20 11:01:20;;;;;;;28.70;16.53;;;15.90;99.90;;;;;;5089895;28;20431;-56
2022/10/20 11:03:55;;;;;;;28.70;17.43;;;15.90;99.90;;;;;;5084843;28;20443;-55
2022/10/20 11:06:34;;;;;;;51.40;20.20;;;15.90;99.90;;;;;;5084673;28;20438;-56
2022/10/20 11:09:19;;;;;;;38.10;18.53;;;15.80;99.90;;;;;;5084355;28;20419;-56
2022/10/20 11:11:47;;;;;;;36.77;17.63;;;15.90;99.90;;;;;;5080751;28;20504;-54
2022/10/20 11:14:20;;;;;;;35.43;20.47;;;15.90;99.90;;;;;;5082113;28;20468;-56
2022/10/20 11:17:03;;;;;;;32.20;16.80;;;15.90;99.90;;;;;;5083050;28;20518;-55
2022/10/20 11:19:43;;;;;;;38.03;19.50;;;16.00;99.90;;;;;;5081496;28;20439;-56
2022/10/20 11:22:23;;;;;;;42.03;18.20;;;16.00;99.90;;;;;;5078187;28;20446;-55
2022/10/20 11:24:54;;;;;;;37.30;18.33;;;16.10;99.90;;;;;;5082916;28;20452;-55
2022/10/20 11:27:25;;;;;;;36.20;19.63;;;16.00;99.90;;;;;;5083383;28;20945;-54
2022/10/20 11:29:56;;;;;;;28.57;17.63;;;16.00;99.90;;;;;;5084503;28;20952;-54
2022/10/20 11:32:39;;;;;;;39.03;18.93;;;16.00;99.90;;;;;;5082590;28;20457;-54
2022/10/20 11:35:38;;;;;;;38.17;20.60;;;16.00;99.90;;;;;;5086744;28;20436;-56
2022/10/20 11:38:19;;;;;;;32.30;18.77;;;15.90;99.90;;;;;;5068852;28;20432;-55
2022/10/20 11:40:58;;;;;;;42.83;19.40;;;15.90;99.90;;;;;;5080583;28;20520;-55
2022/10/20 11:43:38;;;;;;;35.13;18.50;;;15.90;99.90;;;;;;5084667;28;20431;-54
2022/10/20 11:46:12;;;;;;;38.97;19.37;;;15.80;99.90;;;;;;5077526;28;20431;-57
2022/10/20 11:48:51;;;;;;;40.20;19.10;;;15.80;99.90;;;;;;5087061;28;20439;-54
2022/10/20 11:51:23;;;;;;;37.40;20.23;;;15.70;99.90;;;;;;5079479;28;20439;-55
2022/10/20 11:54:29;;;;;;;33.27;17.50;;;15.70;99.90;;;;;;5083690;28;20979;-56
2022/10/20 11:57:22;;;;;;;34.77;19.20;;;15.70;99.90;;;;;;5012495;28;20423;-55
2022/10/20 11:59:59;;;;;;;38.33;19.07;;;15.70;99.90;;;;;;5021666;28;20430;-54
2022/10/20 12:02:43;;;;;;;31.93;19.33;;;15.70;99.90;;;;;;5068008;28;20510;-57
2022/10/20 12:05:27;;;;;;;38.20;19.83;;;15.70;99.90;;;;;;5076357;28;20449;-57
2022/10/20 12:08:12;;;;;;;37.40;19.30;;;15.70;99.90;;;;;;5077851;28;21292;-54
2022/10/20 12:10:56;;;;;;;31.33;18.43;;;15.60;99.90;;;;;;5078017;28;21035;-53
2022/10/20 12:14:00;;;;;;;36.43;18.77;;;15.60;99.90;;;;;;5072189;28;20908;-54
2022/10/20 12:17:23;;;;;;;34.43;18.00;;;15.60;99.90;;;;;;5078405;28;20428;-55
2022/10/20 12:19:50;;;;;;;38.43;20.27;;;15.60;99.90;;;;;;5053657;28;20513;-54
2022/10/20 12:22:16;;;;;;;34.67;20.00;;;15.70;99.90;;;;;;5078907;28;21277;-54
2022/10/20 12:25:03;;;;;;;38.03;18.97;;;15.70;99.90;;;;;;5080857;28;20528;-55
2022/10/20 12:27:29;;;;;;;33.93;18.30;;;15.70;99.90;;;;;;5077554;28;20174;-55
2022/10/20 12:30:04;;;;;;;40.30;18.80;;;15.80;99.90;;;;;;5080408;28;20496;-55
2022/10/20 12:32:38;;;;;;;35.80;19.50;;;15.80;99.90;;;;;;5077913;28;20420;-55
2022/10/20 12:35:09;;;;;;;37.40;18.73;;;15.90;99.90;;;;;;5079213;28;20439;-55
2022/10/20 12:37:36;;;;;;;35.50;17.93;;;15.90;99.90;;;;;;5080725;28;20565;-54
2022/10/20 12:40:07;;;;;;;31.13;17.80;;;15.90;99.90;;;;;;5080154;28;20782;-54
2022/10/20 12:42:37;;;;;;;31.37;17.97;;;15.90;99.90;;;;;;5075735;28;20439;-54
2022/10/20 12:45:14;;;;;;;33.03;18.20;;;15.80;99.90;;;;;;5077749;28;20466;-54